sensor_id;sensor_type;location;lat;lon;timestamp;P1;durP1;ratioP1;P2;durP2;ratioP2
36839;SDS011;24406;51.640;9.566;2023-03-14T00:00:26;3.45;;;1.98;;
36839;SDS011;24406;51.640;9.566;2023-03-14T00:05:29;4.47;;;2.05;;
36839;SDS011;24406;51.640;9.566;2023-03-14T00:10:30;2.67;;;2.25;;
36839;SDS011;24406;51.640;9.566;2023-03-14T00:15:32;1.80;;;1.48;;
36839;SDS011;24406;51.640;9.566;2023-03-14T00:20:35;2.72;;;1.88;;
36839;SDS011;24406;51.640;9.566;2023-03-14T00:25:36;6.13;;;1.60;;
36839;SDS011;24406;51.640;9.566;2023-03-14T00:30:38;1.65;;;1.55;;
36839;SDS011;24406;51.640;9.566;2023-03-14T00:35:41;2.85;;;1.63;;
36839;SDS011;24406;51.640;9.566;2023-03-14T00:40:42;3.50;;;1.58;;
36839;SDS011;24406;51.640;9.566;2023-03-14T00:45:44;3.55;;;1.70;;
36839;SDS011;24406;51.640;9.566;2023-03-14T00:50:47;4.00;;;1.58;;
36839;SDS011;24406;51.640;9.566;2023-03-14T00:55:49;3.33;;;1.60;;
36839;SDS011;24406;51.640;9.566;2023-03-14T01:00:51;4.50;;;1.38;;
36839;SDS011;24406;51.640;9.566;2023-03-14T01:05:53;2.40;;;1.25;;
36839;SDS011;24406;51.640;9.566;2023-03-14T01:10:55;2.38;;;1.33;;
36839;SDS011;24406;51.640;9.566;2023-03-14T01:16:00;1.50;;;1.40;;
36839;SDS011;24406;51.640;9.566;2023-03-14T01:21:09;4.38;;;1.70;;
36839;SDS011;24406;51.640;9.566;2023-03-14T01:26:12;2.58;;;1.33;;
36839;SDS011;24406;51.640;9.566;2023-03-14T01:31:15;2.20;;;1.63;;
36839;SDS011;24406;51.640;9.566;2023-03-14T01:36:18;2.05;;;1.20;;
36839;SDS011;24406;51.640;9.566;2023-03-14T01:41:21;2.05;;;1.67;;
36839;SDS011;24406;51.640;9.566;2023-03-14T01:46:28;1.92;;;1.50;;
36839;SDS011;24406;51.640;9.566;2023-03-14T01:51:35;1.83;;;1.48;;
36839;SDS011;24406;51.640;9.566;2023-03-14T01:56:40;3.20;;;2.00;;
36839;SDS011;24406;51.640;9.566;2023-03-14T02:01:43;3.88;;;1.65;;
36839;SDS011;24406;51.640;9.566;2023-03-14T02:06:51;3.75;;;1.42;;
36839;SDS011;24406;51.640;9.566;2023-03-14T02:11:59;5.63;;;1.65;;
36839;SDS011;24406;51.640;9.566;2023-03-14T02:17:21;2.85;;;1.50;;
36839;SDS011;24406;51.640;9.566;2023-03-14T02:22:47;3.28;;;1.83;;
36839;SDS011;24406;51.640;9.566;2023-03-14T02:27:50;2.42;;;1.75;;
36839;SDS011;24406;51.640;9.566;2023-03-14T02:32:54;3.35;;;1.52;;
36839;SDS011;24406;51.640;9.566;2023-03-14T02:37:59;5.38;;;1.67;;
36839;SDS011;24406;51.640;9.566;2023-03-14T02:43:09;2.80;;;1.70;;
36839;SDS011;24406;51.640;9.566;2023-03-14T02:48:15;8.52;;;2.15;;
36839;SDS011;24406;51.640;9.566;2023-03-14T02:53:18;3.33;;;2.10;;
36839;SDS011;24406;51.640;9.566;2023-03-14T02:58:24;3.53;;;2.20;;
36839;SDS011;24406;51.640;9.566;2023-03-14T03:03:32;4.50;;;1.88;;
36839;SDS011;24406;51.640;9.566;2023-03-14T03:08:34;6.00;;;2.55;;
36839;SDS011;24406;51.640;9.566;2023-03-14T03:13:36;4.63;;;2.13;;
36839;SDS011;24406;51.640;9.566;2023-03-14T03:18:40;4.22;;;2.03;;
36839;SDS011;24406;51.640;9.566;2023-03-14T03:23:41;3.35;;;1.70;;
36839;SDS011;24406;51.640;9.566;2023-03-14T03:28:44;1.52;;;1.33;;
36839;SDS011;24406;51.640;9.566;2023-03-14T03:33:47;2.47;;;1.63;;
36839;SDS011;24406;51.640;9.566;2023-03-14T03:38:49;3.95;;;1.70;;
36839;SDS011;24406;51.640;9.566;2023-03-14T03:43:52;5.95;;;1.70;;
36839;SDS011;24406;51.640;9.566;2023-03-14T03:48:54;5.13;;;1.92;;
36839;SDS011;24406;51.640;9.566;2023-03-14T03:53:56;3.20;;;1.45;;
36839;SDS011;24406;51.640;9.566;2023-03-14T03:59:04;2.28;;;1.42;;
36839;SDS011;24406;51.640;9.566;2023-03-14T04:04:06;2.38;;;1.40;;
36839;SDS011;24406;51.640;9.566;2023-03-14T04:09:08;3.92;;;1.52;;
36839;SDS011;24406;51.640;9.566;2023-03-14T04:14:22;4.22;;;1.73;;
36839;SDS011;24406;51.640;9.566;2023-03-14T04:19:34;6.13;;;1.70;;
36839;SDS011;24406;51.640;9.566;2023-03-14T04:24:36;3.42;;;1.50;;
36839;SDS011;24406;51.640;9.566;2023-03-14T04:29:39;5.47;;;1.90;;
36839;SDS011;24406;51.640;9.566;2023-03-14T04:34:41;4.22;;;1.60;;
36839;SDS011;24406;51.640;9.566;2023-03-14T04:39:43;3.28;;;1.38;;
36839;SDS011;24406;51.640;9.566;2023-03-14T04:45:00;2.63;;;1.50;;
36839;SDS011;24406;51.640;9.566;2023-03-14T04:50:04;5.07;;;1.60;;
36839;SDS011;24406;51.640;9.566;2023-03-14T04:55:06;1.42;;;1.10;;
36839;SDS011;24406;51.640;9.566;2023-03-14T05:00:11;1.95;;;1.50;;
36839;SDS011;24406;51.640;9.566;2023-03-14T05:05:25;3.03;;;1.42;;
36839;SDS011;24406;51.640;9.566;2023-03-14T05:10:37;2.67;;;1.30;;
36839;SDS011;24406;51.640;9.566;2023-03-14T05:15:49;2.88;;;1.30;;
36839;SDS011;24406;51.640;9.566;2023-03-14T05:21:11;1.83;;;1.40;;
36839;SDS011;24406;51.640;9.566;2023-03-14T05:26:42;3.25;;;1.20;;
36839;SDS011;24406;51.640;9.566;2023-03-14T05:32:03;3.28;;;1.23;;
36839;SDS011;24406;51.640;9.566;2023-03-14T05:37:18;2.55;;;1.35;;
36839;SDS011;24406;51.640;9.566;2023-03-14T05:42:38;1.50;;;1.00;;
36839;SDS011;24406;51.640;9.566;2023-03-14T05:48:20;1.60;;;1.20;;
36839;SDS011;24406;51.640;9.566;2023-03-14T05:53:42;4.25;;;1.55;;
36839;SDS011;24406;51.640;9.566;2023-03-14T05:59:07;1.90;;;1.13;;
36839;SDS011;24406;51.640;9.566;2023-03-14T06:04:19;2.83;;;1.20;;
36839;SDS011;24406;51.640;9.566;2023-03-14T06:09:27;2.85;;;1.33;;
36839;SDS011;24406;51.640;9.566;2023-03-14T06:14:31;8.57;;;1.88;;
36839;SDS011;24406;51.640;9.566;2023-03-14T06:19:34;7.05;;;2.10;;
36839;SDS011;24406;51.640;9.566;2023-03-14T06:24:36;4.65;;;1.73;;
36839;SDS011;24406;51.640;9.566;2023-03-14T06:29:38;9.73;;;1.92;;
36839;SDS011;24406;51.640;9.566;2023-03-14T06:34:41;4.28;;;1.80;;
36839;SDS011;24406;51.640;9.566;2023-03-14T06:39:43;7.35;;;2.17;;
36839;SDS011;24406;51.640;9.566;2023-03-14T06:44:53;5.88;;;3.63;;
36839;SDS011;24406;51.640;9.566;2023-03-14T06:49:56;3.90;;;1.90;;
36839;SDS011;24406;51.640;9.566;2023-03-14T06:54:57;4.53;;;2.05;;
36839;SDS011;24406;51.640;9.566;2023-03-14T07:00:01;6.55;;;2.53;;
36839;SDS011;24406;51.640;9.566;2023-03-14T07:05:05;4.80;;;2.75;;
36839;SDS011;24406;51.640;9.566;2023-03-14T07:10:08;4.38;;;2.33;;
36839;SDS011;24406;51.640;9.566;2023-03-14T07:15:10;3.20;;;1.70;;
36839;SDS011;24406;51.640;9.566;2023-03-14T07:20:13;7.93;;;1.75;;
36839;SDS011;24406;51.640;9.566;2023-03-14T07:25:15;5.18;;;2.35;;
36839;SDS011;24406;51.640;9.566;2023-03-14T07:30:17;5.97;;;1.73;;
36839;SDS011;24406;51.640;9.566;2023-03-14T07:35:21;4.00;;;1.73;;
36839;SDS011;24406;51.640;9.566;2023-03-14T07:40:23;1.70;;;1.42;;
36839;SDS011;24406;51.640;9.566;2023-03-14T07:45:25;2.72;;;1.42;;
36839;SDS011;24406;51.640;9.566;2023-03-14T07:50:28;2.88;;;1.40;;
36839;SDS011;24406;51.640;9.566;2023-03-14T07:55:29;2.95;;;1.45;;
36839;SDS011;24406;51.640;9.566;2023-03-14T08:00:30;2.88;;;1.35;;
36839;SDS011;24406;51.640;9.566;2023-03-14T08:05:35;2.42;;;1.60;;
36839;SDS011;24406;51.640;9.566;2023-03-14T08:10:37;3.55;;;2.13;;
36839;SDS011;24406;51.640;9.566;2023-03-14T08:15:39;4.93;;;1.50;;
36839;SDS011;24406;51.640;9.566;2023-03-14T08:20:41;2.75;;;1.10;;
36839;SDS011;24406;51.640;9.566;2023-03-14T08:25:43;1.27;;;0.90;;
36839;SDS011;24406;51.640;9.566;2023-03-14T08:30:44;1.88;;;1.10;;
36839;SDS011;24406;51.640;9.566;2023-03-14T08:35:47;1.13;;;0.85;;
36839;SDS011;24406;51.640;9.566;2023-03-14T08:40:49;0.95;;;0.70;;
36839;SDS011;24406;51.640;9.566;2023-03-14T08:45:50;1.02;;;0.75;;
36839;SDS011;24406;51.640;9.566;2023-03-14T08:50:53;2.28;;;0.75;;
36839;SDS011;24406;51.640;9.566;2023-03-14T08:55:54;1.77;;;0.80;;
36839;SDS011;24406;51.640;9.566;2023-03-14T09:00:56;2.00;;;0.70;;
36839;SDS011;24406;51.640;9.566;2023-03-14T09:06:02;0.73;;;0.60;;
36839;SDS011;24406;51.640;9.566;2023-03-14T09:11:06;1.30;;;0.60;;
36839;SDS011;24406;51.640;9.566;2023-03-14T09:16:08;2.28;;;0.70;;
36839;SDS011;24406;51.640;9.566;2023-03-14T09:21:11;0.68;;;0.68;;
36839;SDS011;24406;51.640;9.566;2023-03-14T09:26:13;1.95;;;0.50;;
36839;SDS011;24406;51.640;9.566;2023-03-14T09:31:15;0.60;;;0.60;;
36839;SDS011;24406;51.640;9.566;2023-03-14T09:36:17;2.75;;;0.82;;
36839;SDS011;24406;51.640;9.566;2023-03-14T09:41:21;2.35;;;0.50;;
36839;SDS011;24406;51.640;9.566;2023-03-14T09:46:23;0.70;;;0.50;;
36839;SDS011;24406;51.640;9.566;2023-03-14T09:51:26;1.02;;;0.80;;
36839;SDS011;24406;51.640;9.566;2023-03-14T09:56:32;0.50;;;0.50;;
36839;SDS011;24406;51.640;9.566;2023-03-14T10:01:33;1.92;;;0.70;;
36839;SDS011;24406;51.640;9.566;2023-03-14T10:06:36;0.70;;;0.70;;
36839;SDS011;24406;51.640;9.566;2023-03-14T10:11:39;5.25;;;4.22;;
36839;SDS011;24406;51.640;9.566;2023-03-14T10:16:41;0.65;;;0.65;;
36839;SDS011;24406;51.640;9.566;2023-03-14T10:21:50;0.68;;;0.60;;
36839;SDS011;24406;51.640;9.566;2023-03-14T10:26:53;0.40;;;0.40;;
36839;SDS011;24406;51.640;9.566;2023-03-14T10:31:57;0.82;;;0.65;;
36839;SDS011;24406;51.640;9.566;2023-03-14T10:37:05;1.00;;;0.90;;
36839;SDS011;24406;51.640;9.566;2023-03-14T10:42:12;0.90;;;0.80;;
36839;SDS011;24406;51.640;9.566;2023-03-14T10:47:17;1.33;;;0.80;;
36839;SDS011;24406;51.640;9.566;2023-03-14T10:52:22;0.75;;;0.73;;
36839;SDS011;24406;51.640;9.566;2023-03-14T10:57:25;1.85;;;0.60;;
36839;SDS011;24406;51.640;9.566;2023-03-14T11:02:40;0.77;;;0.70;;
36839;SDS011;24406;51.640;9.566;2023-03-14T11:07:49;0.95;;;0.75;;
36839;SDS011;24406;51.640;9.566;2023-03-14T11:12:56;0.60;;;0.60;;
36839;SDS011;24406;51.640;9.566;2023-03-14T11:18:19;0.88;;;0.60;;
36839;SDS011;24406;51.640;9.566;2023-03-14T11:23:42;0.95;;;0.60;;
36839;SDS011;24406;51.640;9.566;2023-03-14T11:28:49;0.57;;;0.57;;
36839;SDS011;24406;51.640;9.566;2023-03-14T11:33:53;0.50;;;0.50;;
36839;SDS011;24406;51.640;9.566;2023-03-14T11:38:59;1.13;;;0.70;;
36839;SDS011;24406;51.640;9.566;2023-03-14T11:44:01;0.70;;;0.70;;
36839;SDS011;24406;51.640;9.566;2023-03-14T11:49:05;1.52;;;0.80;;
36839;SDS011;24406;51.640;9.566;2023-03-14T11:54:14;1.08;;;0.80;;
36839;SDS011;24406;51.640;9.566;2023-03-14T11:59:18;2.35;;;1.08;;
36839;SDS011;24406;51.640;9.566;2023-03-14T12:04:38;3.53;;;1.25;;
36839;SDS011;24406;51.640;9.566;2023-03-14T12:09:45;1.73;;;0.63;;
36839;SDS011;24406;51.640;9.566;2023-03-14T12:14:52;0.60;;;0.60;;
36839;SDS011;24406;51.640;9.566;2023-03-14T12:20:01;0.60;;;0.60;;
36839;SDS011;24406;51.640;9.566;2023-03-14T12:25:14;0.68;;;0.68;;
36839;SDS011;24406;51.640;9.566;2023-03-14T12:30:23;0.85;;;0.85;;
36839;SDS011;24406;51.640;9.566;2023-03-14T12:35:34;0.77;;;0.77;;
36839;SDS011;24406;51.640;9.566;2023-03-14T12:40:38;0.80;;;0.80;;
36839;SDS011;24406;51.640;9.566;2023-03-14T12:45:41;0.50;;;0.50;;
36839;SDS011;24406;51.640;9.566;2023-03-14T12:51:16;0.98;;;0.70;;
36839;SDS011;24406;51.640;9.566;2023-03-14T12:56:31;3.15;;;2.85;;
36839;SDS011;24406;51.640;9.566;2023-03-14T13:01:46;2.80;;;2.60;;
36839;SDS011;24406;51.640;9.566;2023-03-14T13:06:50;1.80;;;1.70;;
36839;SDS011;24406;51.640;9.566;2023-03-14T13:11:54;1.15;;;1.05;;
36839;SDS011;24406;51.640;9.566;2023-03-14T13:17:00;0.95;;;0.95;;
36839;SDS011;24406;51.640;9.566;2023-03-14T13:22:15;1.33;;;1.23;;
36839;SDS011;24406;51.640;9.566;2023-03-14T13:27:20;0.95;;;0.93;;
36839;SDS011;24406;51.640;9.566;2023-03-14T13:32:32;1.02;;;0.90;;
36839;SDS011;24406;51.640;9.566;2023-03-14T13:43:39;3.90;;;1.60;;
36839;SDS011;24406;51.640;9.566;2023-03-14T13:48:54;1.45;;;1.30;;
36839;SDS011;24406;51.640;9.566;2023-03-14T13:54:01;1.95;;;1.40;;
36839;SDS011;24406;51.640;9.566;2023-03-14T13:59:03;3.42;;;1.42;;
36839;SDS011;24406;51.640;9.566;2023-03-14T14:04:07;5.28;;;4.28;;
36839;SDS011;24406;51.640;9.566;2023-03-14T14:09:12;6.63;;;2.38;;
36839;SDS011;24406;51.640;9.566;2023-03-14T14:14:20;8.50;;;5.00;;
36839;SDS011;24406;51.640;9.566;2023-03-14T14:19:24;5.10;;;2.20;;
36839;SDS011;24406;51.640;9.566;2023-03-14T14:24:28;4.45;;;2.20;;
36839;SDS011;24406;51.640;9.566;2023-03-14T14:29:32;6.80;;;2.30;;
36839;SDS011;24406;51.640;9.566;2023-03-14T14:34:40;7.35;;;2.90;;
36839;SDS011;24406;51.640;9.566;2023-03-14T14:39:49;12.70;;;2.40;;
36839;SDS011;24406;51.640;9.566;2023-03-14T14:44:51;7.28;;;2.50;;
36839;SDS011;24406;51.640;9.566;2023-03-14T14:49:55;3.67;;;2.35;;
36839;SDS011;24406;51.640;9.566;2023-03-14T14:55:01;4.90;;;2.83;;
36839;SDS011;24406;51.640;9.566;2023-03-14T15:00:03;5.78;;;2.38;;
36839;SDS011;24406;51.640;9.566;2023-03-14T15:05:12;5.43;;;2.42;;
36839;SDS011;24406;51.640;9.566;2023-03-14T15:10:15;10.45;;;3.22;;
36839;SDS011;24406;51.640;9.566;2023-03-14T15:15:17;11.52;;;2.75;;
36839;SDS011;24406;51.640;9.566;2023-03-14T15:20:20;12.70;;;3.35;;
36839;SDS011;24406;51.640;9.566;2023-03-14T15:25:23;11.13;;;3.13;;
36839;SDS011;24406;51.640;9.566;2023-03-14T15:30:25;13.52;;;3.58;;
36839;SDS011;24406;51.640;9.566;2023-03-14T15:35:27;8.88;;;3.17;;
36839;SDS011;24406;51.640;9.566;2023-03-14T15:40:29;16.13;;;5.60;;
36839;SDS011;24406;51.640;9.566;2023-03-14T15:45:30;10.73;;;3.42;;
36839;SDS011;24406;51.640;9.566;2023-03-14T15:55:36;14.93;;;3.80;;
36839;SDS011;24406;51.640;9.566;2023-03-14T16:00:38;14.48;;;4.10;;
36839;SDS011;24406;51.640;9.566;2023-03-14T16:05:41;17.08;;;6.47;;
36839;SDS011;24406;51.640;9.566;2023-03-14T16:10:42;11.98;;;4.22;;
36839;SDS011;24406;51.640;9.566;2023-03-14T16:15:52;12.73;;;4.28;;
36839;SDS011;24406;51.640;9.566;2023-03-14T16:21:01;15.70;;;4.30;;
36839;SDS011;24406;51.640;9.566;2023-03-14T16:26:08;14.45;;;4.07;;
36839;SDS011;24406;51.640;9.566;2023-03-14T16:31:11;11.88;;;3.10;;
36839;SDS011;24406;51.640;9.566;2023-03-14T16:36:26;13.02;;;3.22;;
36839;SDS011;24406;51.640;9.566;2023-03-14T16:41:47;12.13;;;3.65;;
36839;SDS011;24406;51.640;9.566;2023-03-14T16:46:49;11.70;;;2.50;;
36839;SDS011;24406;51.640;9.566;2023-03-14T16:51:52;12.63;;;3.58;;
36839;SDS011;24406;51.640;9.566;2023-03-14T16:56:54;9.05;;;2.72;;
36839;SDS011;24406;51.640;9.566;2023-03-14T17:01:58;6.60;;;2.85;;
36839;SDS011;24406;51.640;9.566;2023-03-14T17:07:02;8.43;;;2.38;;
36839;SDS011;24406;51.640;9.566;2023-03-14T17:12:09;9.95;;;2.58;;
36839;SDS011;24406;51.640;9.566;2023-03-14T17:17:47;12.00;;;4.60;;
36839;SDS011;24406;51.640;9.566;2023-03-14T17:23:40;14.70;;;4.97;;
36839;SDS011;24406;51.640;9.566;2023-03-14T17:28:44;17.80;;;5.13;;
36839;SDS011;24406;51.640;9.566;2023-03-14T17:45:35;15.73;;;3.53;;
36839;SDS011;24406;51.640;9.566;2023-03-14T17:50:37;29.60;;;9.10;;
36839;SDS011;24406;51.640;9.566;2023-03-14T17:55:42;11.77;;;2.95;;
36839;SDS011;24406;51.640;9.566;2023-03-14T18:00:49;15.52;;;3.63;;
36839;SDS011;24406;51.640;9.566;2023-03-14T18:05:51;10.63;;;4.35;;
36839;SDS011;24406;51.640;9.566;2023-03-14T18:10:53;8.35;;;3.00;;
36839;SDS011;24406;51.640;9.566;2023-03-14T18:15:56;10.95;;;3.08;;
36839;SDS011;24406;51.640;9.566;2023-03-14T18:21:06;10.02;;;2.42;;
36839;SDS011;24406;51.640;9.566;2023-03-14T18:26:12;9.43;;;2.10;;
36839;SDS011;24406;51.640;9.566;2023-03-14T18:31:18;7.05;;;2.42;;
36839;SDS011;24406;51.640;9.566;2023-03-14T18:36:22;7.13;;;2.13;;
36839;SDS011;24406;51.640;9.566;2023-03-14T18:41:25;11.93;;;2.28;;
36839;SDS011;24406;51.640;9.566;2023-03-14T18:46:33;9.27;;;3.55;;
36839;SDS011;24406;51.640;9.566;2023-03-14T18:51:54;9.77;;;2.53;;
36839;SDS011;24406;51.640;9.566;2023-03-14T18:56:55;12.68;;;2.47;;
36839;SDS011;24406;51.640;9.566;2023-03-14T19:02:00;11.43;;;3.45;;
36839;SDS011;24406;51.640;9.566;2023-03-14T19:07:08;8.57;;;2.50;;
36839;SDS011;24406;51.640;9.566;2023-03-14T19:12:09;12.13;;;4.72;;
36839;SDS011;24406;51.640;9.566;2023-03-14T19:17:19;16.85;;;4.82;;
36839;SDS011;24406;51.640;9.566;2023-03-14T19:22:24;9.48;;;3.90;;
36839;SDS011;24406;51.640;9.566;2023-03-14T19:27:31;10.20;;;3.50;;
36839;SDS011;24406;51.640;9.566;2023-03-14T19:32:51;11.02;;;4.35;;
36839;SDS011;24406;51.640;9.566;2023-03-14T19:38:34;10.55;;;3.53;;
36839;SDS011;24406;51.640;9.566;2023-03-14T19:43:23;8.70;;;3.92;;
36839;SDS011;24406;51.640;9.566;2023-03-14T19:48:56;15.30;;;6.38;;
36839;SDS011;24406;51.640;9.566;2023-03-14T19:54:06;33.33;;;13.07;;
36839;SDS011;24406;51.640;9.566;2023-03-14T19:59:28;24.58;;;9.95;;
36839;SDS011;24406;51.640;9.566;2023-03-14T20:04:38;22.67;;;10.52;;
36839;SDS011;24406;51.640;9.566;2023-03-14T20:09:51;11.73;;;5.05;;
36839;SDS011;24406;51.640;9.566;2023-03-14T20:14:53;6.60;;;2.50;;
36839;SDS011;24406;51.640;9.566;2023-03-14T20:31:54;8.00;;;2.00;;
36839;SDS011;24406;51.640;9.566;2023-03-14T20:37:00;5.78;;;1.60;;
36839;SDS011;24406;51.640;9.566;2023-03-14T20:42:23;9.00;;;3.70;;
36839;SDS011;24406;51.640;9.566;2023-03-14T20:47:30;6.10;;;2.77;;
36839;SDS011;24406;51.640;9.566;2023-03-14T20:52:49;7.10;;;2.50;;
36839;SDS011;24406;51.640;9.566;2023-03-14T20:57:51;9.52;;;3.25;;
36839;SDS011;24406;51.640;9.566;2023-03-14T21:02:53;9.02;;;3.00;;
36839;SDS011;24406;51.640;9.566;2023-03-14T21:08:24;7.35;;;2.90;;
36839;SDS011;24406;51.640;9.566;2023-03-14T21:13:26;8.18;;;3.00;;
36839;SDS011;24406;51.640;9.566;2023-03-14T21:18:32;10.18;;;2.38;;
36839;SDS011;24406;51.640;9.566;2023-03-14T21:23:42;5.93;;;2.85;;
36839;SDS011;24406;51.640;9.566;2023-03-14T21:29:05;10.57;;;3.80;;
36839;SDS011;24406;51.640;9.566;2023-03-14T21:34:16;10.45;;;2.42;;
36839;SDS011;24406;51.640;9.566;2023-03-14T21:44:51;9.93;;;3.05;;
36839;SDS011;24406;51.640;9.566;2023-03-14T21:49:52;6.93;;;2.10;;
36839;SDS011;24406;51.640;9.566;2023-03-14T21:55:02;6.82;;;2.40;;
36839;SDS011;24406;51.640;9.566;2023-03-14T22:00:16;6.72;;;2.47;;
36839;SDS011;24406;51.640;9.566;2023-03-14T22:05:28;6.85;;;2.50;;
36839;SDS011;24406;51.640;9.566;2023-03-14T22:10:44;7.45;;;3.60;;
36839;SDS011;24406;51.640;9.566;2023-03-14T22:15:59;6.88;;;3.00;;
36839;SDS011;24406;51.640;9.566;2023-03-14T22:21:04;8.45;;;3.65;;
36839;SDS011;24406;51.640;9.566;2023-03-14T22:26:10;11.25;;;3.92;;
36839;SDS011;24406;51.640;9.566;2023-03-14T22:31:13;10.38;;;2.80;;
36839;SDS011;24406;51.640;9.566;2023-03-14T22:36:42;10.50;;;3.03;;
36839;SDS011;24406;51.640;9.566;2023-03-14T22:41:58;9.63;;;2.85;;
36839;SDS011;24406;51.640;9.566;2023-03-14T22:47:11;8.75;;;2.53;;
36839;SDS011;24406;51.640;9.566;2023-03-14T22:52:35;7.20;;;2.60;;
36839;SDS011;24406;51.640;9.566;2023-03-14T22:57:40;10.18;;;2.38;;
36839;SDS011;24406;51.640;9.566;2023-03-14T23:02:49;15.38;;;3.35;;
36839;SDS011;24406;51.640;9.566;2023-03-14T23:07:51;9.07;;;2.20;;
36839;SDS011;24406;51.640;9.566;2023-03-14T23:12:54;12.07;;;2.30;;
36839;SDS011;24406;51.640;9.566;2023-03-14T23:17:56;6.55;;;2.28;;
36839;SDS011;24406;51.640;9.566;2023-03-14T23:22:58;5.63;;;2.30;;
36839;SDS011;24406;51.640;9.566;2023-03-14T23:28:01;5.72;;;1.98;;
36839;SDS011;24406;51.640;9.566;2023-03-14T23:33:02;14.95;;;2.65;;
36839;SDS011;24406;51.640;9.566;2023-03-14T23:38:05;9.43;;;1.77;;
36839;SDS011;24406;51.640;9.566;2023-03-14T23:43:08;6.32;;;1.75;;
36839;SDS011;24406;51.640;9.566;2023-03-14T23:48:10;8.82;;;2.22;;
36839;SDS011;24406;51.640;9.566;2023-03-14T23:53:14;9.82;;;2.25;;
36839;SDS011;24406;51.640;9.566;2023-03-14T23:58:17;9.95;;;3.42;;
